Station PACF1 - 8729108 - Panama City, FL Image indicating link to RSS feed of recent meteorological observations for station PACF1


Conditions at PACF1 as of
(3:48 pm CDT)
2048 GMT on 07/20/2024:
     

Click on the graph icon in the table below to see a time series plot of the last five days of that observation.

5-day plot - Wind Direction Wind Direction (WDIR): SW ( 230 deg true )
5-day plot - Wind Speed Wind Speed (WSPD): 5.1 kts
5-day plot - Wind Gust Wind Gust (GST): 7.0 kts
5-day plot - Water Temperature Water Temperature (WTMP): 87.8 °F
5-day plot - Wind Speed at 10 Meters Wind Speed at 10 meters (WSPD10M): 5.8 kts
5-day plot - Wind Speed at 20 Meters Wind Speed at 20 meters (WSPD20M): 5.8 kts
5-day plot -  Wind Speed, Wind Gust and Atmospheric Pressure Combined plot of Wind Speed, Gust, and Air Pressure
NOS Water Level Observation Network Water Level
Previous observations
TIME
(CDT)
5-day plot - Wind Direction
WDIR
 
5-day plot - Wind Speed
WSPD
kts
5-day plot - Wind Gust
GST
kts
5-day plot - Wave Height
WVHT
ft
5-day plot - Dominant Wave Period
DPD
sec
5-day plot - Average Wave Period
APD
sec
5-day plot - Mean Wave Direction
MWD
 
5-day plot - Atmospheric Pressure
PRES
in
5-day plot - Pressure Tendency
PTDY
in
5-day plot - Air Temperature
ATMP
°F
5-day plot - Water Temperature
WTMP
°F
5-day plot - Dew Point
DEWP
°F
5-day plot - Salinity
SAL
psu
5-day plot - Visibility
VIS
nmi
5-day plot - Tide (above MLLW)
TIDE
ft
2024-07-20 03:42 pmWSW 6.0 7.0------- 87.6----
2024-07-20 03:36 pmWSW 5.1 7.0------- 87.4----
2024-07-20 03:30 pmWSW 5.1 7.0------- 87.4----
2024-07-20 03:24 pm W 5.1 6.0------- 87.4----
2024-07-20 03:18 pmWSW 5.1 7.0------- 87.4----
2024-07-20 03:12 pmWSW 6.0 7.0------- 87.4----
2024-07-20 03:06 pmWSW 5.1 6.0------- 87.4----
2024-07-20 03:00 pm SW 4.1 5.1------- 87.4----
2024-07-20 02:54 pm SW 4.1 4.1------- 87.3----
2024-07-20 02:48 pm SW 2.9 5.1------- 87.3----
2024-07-20 02:42 pmWSW 4.1 5.1------- 87.3----
2024-07-20 02:36 pmWSW 4.1 5.1------- 87.3----
2024-07-20 02:30 pm W 4.1 5.1------- 87.1----
2024-07-20 02:24 pm W 1.9 1.9------- 87.1----
2024-07-20 02:18 pm W 1.9 5.1------------
2024-07-20 02:12 pm W 4.1 6.0------------
2024-07-20 02:06 pmWNW 1.0 5.1------------
2024-07-20 02:00 pmWNW 5.1 7.0------- 87.1----
2024-07-20 01:54 pm W 5.1 9.9------- 87.1----
2024-07-20 01:48 pm W 7.0 8.0------------
2024-07-20 01:42 pm- 0.0 4.1------------
2024-07-20 01:36 pmNNW 5.1 12.0------------
2024-07-20 01:30 pmWNW 11.1 12.0------- 87.1----
2024-07-20 01:24 pm NW 8.9 11.1------- 87.3----
2024-07-20 01:18 pm NW 9.9 15.0------- 87.3----
2024-07-20 01:12 pmWNW 14.0 17.1------- 87.1----
2024-07-20 01:06 pmWNW 15.0 18.1------- 87.3----
2024-07-20 01:00 pmWNW 15.0 18.1------- 87.3----
2024-07-20 12:54 pm W 14.0 17.1------- 87.3----
2024-07-20 12:48 pm W 12.0 17.1------- 87.3----
2024-07-20 12:42 pm W 8.0 15.9------- 87.4----
2024-07-20 12:36 pmWNW 15.0 19.0------- 87.3----
2024-07-20 12:30 pm W 17.1 22.0------- 87.3----
2024-07-20 12:24 pm NW 13.0 22.0------- 87.3----
2024-07-20 12:18 pmWNW 15.9 21.0------- 87.3----
2024-07-20 12:12 pmWNW 12.0 19.0------- 87.3----
2024-07-20 12:06 pm W 11.1 15.0------- 87.3----
2024-07-20 12:00 pm SW 8.9 22.0------- 87.3----
2024-07-20 11:54 am S 19.0 24.1------- 87.3----
2024-07-20 11:48 am S 14.0 15.9------- 87.3----
2024-07-20 11:42 am S 11.1 14.0------- 87.3----
2024-07-20 11:36 am S 8.0 11.1------- 87.3----
2024-07-20 11:30 amSSE 8.9 12.0------- 87.3----
2024-07-20 11:24 am S 7.0 12.0------- 87.3----
2024-07-20 11:18 am S 8.0 12.0------- 87.3----
2024-07-20 11:12 am S 8.9 11.1------- 87.1----
2024-07-20 11:06 am S 8.0 11.1------- 87.1----
2024-07-20 11:00 am S 6.0 8.9------- 87.1----
2024-07-20 10:54 am S 6.0 8.0------- 87.1----
2024-07-20 10:48 am S 8.9 11.1------- 87.1----
2024-07-20 10:42 am S 8.0 11.1------- 87.1----
2024-07-20 10:36 am S 7.0 9.9------- 87.1----
2024-07-20 10:30 am SE 6.0 9.9------- 86.9----
2024-07-20 10:24 am SE 8.9 11.1------- 87.1----
2024-07-20 10:18 am SE 8.9 9.9------- 87.1----
2024-07-20 10:12 am SE 8.9 11.1------- 86.9----
2024-07-20 10:06 am SE 8.0 11.1------- 86.9----
2024-07-20 10:00 am SE 8.9 11.1------- 87.1----
2024-07-20 09:54 am SE 8.9 11.1------- 86.9----
2024-07-20 09:48 am SE 6.0 8.0------- 86.7----
2024-07-20 09:42 am SE 7.0 8.0------- 86.9----
2024-07-20 09:36 am SE 5.1 6.0------- 86.9----
2024-07-20 09:30 am SE 5.1 7.0------- 86.7----
2024-07-20 09:24 amESE 1.9 2.9------- 86.7----
2024-07-20 09:18 amENE 1.0 2.9------- 86.9----
2024-07-20 09:12 amESE 2.9 2.9------- 86.9----
2024-07-20 09:06 amESE 2.9 4.1------- 86.9----
2024-07-20 09:00 am E 2.9 5.1------- 86.9----
2024-07-20 08:54 am SE 5.1 6.0------- 86.7----
2024-07-20 08:48 am SE 2.9 4.1------- 86.7----
2024-07-20 08:42 am E 1.9 4.1------- 86.5----
2024-07-20 08:36 amENE 2.9 6.0------- 86.5----
2024-07-20 08:30 am E 5.1 6.0------- 86.5----
2024-07-20 08:24 am SE 5.1 7.0------- 86.4----
2024-07-20 08:18 amSSE 6.0 8.9------- 85.8----
2024-07-20 08:12 amSSE 5.1 6.0------- 86.2----
2024-07-20 08:06 am S 5.1 11.1------- 86.0----
2024-07-20 08:00 amSSE 6.0 8.0------- 85.5----
2024-07-20 07:54 amESE 9.9 17.1------- 85.3----
2024-07-20 07:48 amSSE 18.1 24.1------- 85.1----
2024-07-20 07:42 amSSE 8.9 12.0------- 84.9----
2024-07-20 07:36 am S 7.0 8.0------- 85.1----
2024-07-20 07:30 am SE 5.1 6.0------- 85.8----
2024-07-20 07:24 amESE 6.0 12.0------- 85.8----
2024-07-20 07:18 amSSE 8.0 9.9------- 86.0----
2024-07-20 07:12 amSSW 1.0 15.9------- 86.4----
2024-07-20 07:06 amSSE 13.0 17.1------- 86.5----
2024-07-20 07:00 am SE 8.9 15.0------- 87.1----
2024-07-20 06:54 amSSE 12.0 25.1------- 87.3----
2024-07-20 06:48 am SE 18.1 27.0------------
2024-07-20 06:42 am SE 13.0 17.1------------
2024-07-20 06:36 am S 8.9 11.1------------
2024-07-20 06:30 am SE 7.0 11.1------- 87.4----
2024-07-20 06:24 amSSE 8.9 14.0------- 87.4----
2024-07-20 06:18 am SW 12.0 21.0------- 87.4----
2024-07-20 06:12 amSSW 15.9 19.0------- 87.4----
2024-07-20 06:06 am S 6.0 7.0------- 87.4----
2024-07-20 06:00 am---------- 87.4----
2024-07-20 05:54 am---------- 87.4----
2024-07-20 05:48 amSSW 5.1 6.0------- 87.6----
2024-07-20 05:42 amSSW 5.1 7.0------- 87.6----
2024-07-20 05:36 am S 6.0 8.9------- 87.6----
2024-07-20 05:30 am---------- 87.6----
2024-07-20 05:24 am---------- 87.6----
2024-07-20 05:18 amSSW 6.0 7.0------- 87.6----
2024-07-20 05:12 amSSW 6.0 7.0------- 87.8----
2024-07-20 05:06 amSSW 6.0 8.0------- 87.8----
2024-07-20 05:00 amSSW 5.1 6.0------- 87.6----
2024-07-20 04:54 amSSW 5.1 7.0------- 87.6----
2024-07-20 04:48 amSSW 5.1 8.0------- 87.6----
2024-07-20 04:42 amSSW 5.1 7.0------- 87.6----
2024-07-20 04:36 amSSW 6.0 8.0------- 87.4----
2024-07-20 04:30 amSSW 6.0 8.9------- 87.6----
2024-07-20 04:24 amSSW 7.0 8.9------- 87.6----
2024-07-20 04:18 amSSW 8.0 8.9------- 87.4----
2024-07-20 04:12 amSSW 7.0 8.9------- 87.6----
2024-07-20 04:06 am S 8.0 8.9------- 87.6----
2024-07-20 04:00 amSSW 7.0 9.9------- 87.6----
2024-07-20 03:54 amSSW 7.0 8.9------- 87.6----
2024-07-20 03:48 amSSW 8.0 8.9------- 87.6----
2024-07-20 03:42 amSSW 8.0 8.9------- 87.6----
2024-07-20 03:36 amSSW 7.0 8.0------- 87.8----
2024-07-20 03:30 amSSW 6.0 8.0------- 87.8----
2024-07-20 03:24 amSSW 6.0 8.0------- 87.6----
2024-07-20 03:18 amSSW 7.0 8.9------- 87.8----
2024-07-20 03:12 amSSW 7.0 8.9------- 87.8----
2024-07-20 03:06 amSSW 7.0 8.9------- 87.8----
2024-07-20 03:00 amSSW 6.0 8.0------- 87.6----
2024-07-20 02:54 amSSW 8.0 9.9------- 87.6----
2024-07-20 02:48 amSSW 8.9 11.1------- 87.6----
2024-07-20 02:42 amSSW 7.0 8.0------- 87.6----
2024-07-20 02:36 amSSW 6.0 6.0------- 87.6----
2024-07-20 02:30 amSSW 5.1 7.0------- 87.6----
2024-07-20 02:24 amSSW 7.0 9.9------- 87.6----
2024-07-20 02:18 am---------- 87.8----
2024-07-20 02:12 am---------- 87.8----
2024-07-20 02:06 am---------- 87.8----
2024-07-20 02:00 amSSW 7.0 8.0------- 87.8----
2024-07-20 01:54 am S 6.0 8.0------- 87.8----
2024-07-20 01:48 am---------- 87.8----
2024-07-20 01:42 am---------- 87.8----
2024-07-20 01:36 am---------- 88.0----
2024-07-20 01:30 am S 6.0 7.0------- 88.0----
2024-07-20 01:24 am S 5.1 7.0------- 88.0----
2024-07-20 01:18 am S 5.1 6.0------- 88.0----
2024-07-20 01:12 amSSW 5.1 6.0------- 88.0----
2024-07-20 01:06 amSSW 5.1 5.1------- 88.0----
2024-07-20 01:00 amSSW 5.1 6.0------- 88.0----
2024-07-20 12:54 amSSW 5.1 6.0------- 88.0----
2024-07-20 12:48 amSSW 5.1 5.1------- 88.0----
2024-07-20 12:42 am S 5.1 6.0------- 88.2----
2024-07-20 12:36 amSSW 5.1 7.0------- 88.2----
2024-07-20 12:30 am S 6.0 7.0------- 88.2----
2024-07-20 12:24 am S 5.1 6.0------- 88.2----
2024-07-20 12:18 am S 4.1 4.1------- 88.3----
2024-07-20 12:12 am S 2.9 4.1------- 88.5----
2024-07-20 12:06 am S 2.9 4.1------- 88.3----
2024-07-20 12:00 amSSW 2.9 4.1------- 88.5----
2024-07-19 11:54 pmSSW 4.1 5.1------- 88.5----
2024-07-19 11:48 pmSSW 4.1 6.0------- 88.5----
2024-07-19 11:42 pm S 5.1 6.0------- 88.5----
2024-07-19 11:36 pm S 5.1 6.0------- 88.5----
2024-07-19 11:30 pm S 5.1 6.0------- 88.5----
2024-07-19 11:24 pm S 5.1 6.0------- 88.5----
2024-07-19 11:18 pm S 5.1 6.0------- 88.5----
2024-07-19 11:12 pm S 5.1 6.0------- 88.5----
2024-07-19 11:06 pm S 5.1 7.0------- 88.5----
2024-07-19 11:00 pm S 5.1 7.0------- 88.5----
2024-07-19 10:54 pm S 5.1 6.0------- 88.7----
2024-07-19 10:48 pm S 5.1 5.1------- 88.5----
2024-07-19 10:42 pm S 5.1 7.0------- 88.5----
2024-07-19 10:36 pm S 5.1 6.0------- 88.3----
2024-07-19 10:30 pm S 5.1 6.0------- 88.3----
2024-07-19 10:24 pm S 5.1 6.0------- 88.3----
2024-07-19 10:18 pm S 4.1 5.1------- 88.5----
2024-07-19 10:12 pmSSE 4.1 5.1------- 88.5----
2024-07-19 10:06 pmSSE 4.1 5.1------- 88.5----
2024-07-19 10:00 pmSSE 4.1 5.1------- 88.5----
2024-07-19 09:54 pmSSE 4.1 5.1------- 88.5----
2024-07-19 09:48 pmSSE 5.1 6.0------- 88.7----
2024-07-19 09:42 pmSSE 5.1 6.0------- 88.9----
2024-07-19 09:36 pmSSE 6.0 6.0------- 88.9----
2024-07-19 09:30 pm SE 5.1 7.0------- 88.9----
2024-07-19 09:24 pmESE 5.1 6.0------- 88.9----
2024-07-19 09:18 pm SE 5.1 6.0------- 89.1----
2024-07-19 09:12 pm SE 5.1 6.0------- 89.1----
2024-07-19 09:06 pmSSE 6.0 7.0------- 89.1----
2024-07-19 09:00 pmSSE 6.0 8.0------- 88.9----
2024-07-19 08:54 pmSSE 7.0 8.0------- 88.7----
2024-07-19 08:48 pm S 6.0 7.0------- 88.5----
2024-07-19 08:42 pm S 5.1 6.0------- 88.7----
2024-07-19 08:36 pm S 5.1 5.1------- 88.7----
2024-07-19 08:30 pm S 5.1 5.1------- 88.7----
2024-07-19 08:24 pm S 4.1 5.1------- 88.7----
2024-07-19 08:18 pmSSW 5.1 6.0------- 88.7----
2024-07-19 08:12 pm SW 5.1 6.0------- 88.7----
2024-07-19 08:06 pm SW 5.1 6.0------- 88.9----
2024-07-19 08:00 pmSSW 5.1 6.0------- 88.9----
2024-07-19 07:54 pm SW 5.1 5.1------- 88.9----
2024-07-19 07:48 pmSSW 5.1 6.0------- 88.9----
2024-07-19 07:42 pm SW 5.1 6.0------- 88.9----
2024-07-19 07:36 pmWSW 5.1 7.0------- 88.9----
2024-07-19 07:30 pm W 5.1 7.0------- 88.9----
2024-07-19 07:24 pm SW 6.0 8.0------- 88.9----
2024-07-19 07:18 pm SW 8.0 11.1------- 88.9----
2024-07-19 07:12 pm SW 8.0 13.0------- 88.9----
2024-07-19 07:06 pm SW 11.1 12.0------- 88.9----
2024-07-19 07:00 pmWSW 12.0 14.0------- 88.9----
2024-07-19 06:54 pm SW 12.0 13.0------- 88.9----
2024-07-19 06:48 pmWSW 9.9 12.0------- 88.9----
2024-07-19 06:42 pm SW 9.9 12.0------- 88.9----
2024-07-19 06:36 pm SW 8.9 11.1------- 89.1----
2024-07-19 06:30 pm SW 8.0 9.9------- 89.1----
2024-07-19 06:24 pm SW 8.0 8.9------- 88.9----
2024-07-19 06:18 pmWSW 7.0 8.0------- 88.9----
2024-07-19 06:12 pmWSW 7.0 8.0------- 88.9----
2024-07-19 06:06 pm W 7.0 8.0------- 88.9----
2024-07-19 06:00 pmWSW 6.0 8.0------- 88.9----
2024-07-19 05:54 pmWSW 6.0 8.0------- 88.9----
2024-07-19 05:48 pm W 7.0 8.0------- 89.1----
2024-07-19 05:42 pmWSW 8.0 8.9------- 89.2----
2024-07-19 05:36 pm W 7.0 8.0------- 89.4----
2024-07-19 05:30 pm W 7.0 9.9------- 89.4----
2024-07-19 05:24 pmWSW 8.0 12.0------- 89.6----
2024-07-19 05:18 pm SW 9.9 12.0------- 89.6----
2024-07-19 05:12 pmWSW 8.9 12.0------- 89.1----
2024-07-19 05:06 pmWSW 9.9 12.0------- 89.1----
2024-07-19 05:00 pm SW 8.9 12.0------- 89.2----
2024-07-19 04:54 pmWSW 9.9 12.0------- 89.2----
2024-07-19 04:48 pm SW 8.9 12.0------- 89.1----
2024-07-19 04:42 pm SW 8.9 12.0------- 89.1----
2024-07-19 04:36 pm SW 9.9 12.0------- 89.2----
2024-07-19 04:30 pm SW 8.9 12.0------- 89.4----
2024-07-19 04:24 pmSSW 8.9 9.9------- 89.4----
2024-07-19 04:18 pmSSW 8.0 9.9------- 89.4----
2024-07-19 04:12 pm S 6.0 8.0------- 89.4----
2024-07-19 04:06 pm S 7.0 11.1------- 89.4----
2024-07-19 04:00 pmSSW 8.0 9.9------- 88.9----
2024-07-19 03:54 pm SW 5.1 6.0------- 89.1----